Time,TemperatureF,DewpointF,PressureIn,WindDirection,WindDirectionDegrees,WindSpeedMPH,WindSpeedGustMPH,Humidity,HourlyPrecipIn,Conditions,Clouds,dailyrainin,SoftwareType,DateUTC
2013-09-21 00:01:00,60.1,59.0,29.90,SSW,206,0.0,1.0,96,0.00,,,0.00,weatherlink.com 1.10,2013-09-21 04:01:00,
2013-09-21 00:17:00,59.8,59.0,29.90,SSW,206,0.0,1.0,96,0.00,,,0.00,weatherlink.com 1.10,2013-09-21 04:17:00,
2013-09-21 00:31:00,59.4,58.0,29.90,SSW,206,0.0,0.0,96,0.00,,,0.00,weatherlink.com 1.10,2013-09-21 04:31:00,
2013-09-21 00:46:00,59.3,58.0,29.90,SSW,206,0.0,0.0,96,0.00,,,0.00,weatherlink.com 1.10,2013-09-21 04:46:00,
2013-09-21 01:01:00,59.2,58.0,29.90,SSW,206,0.0,0.0,96,0.00,,,0.00,weatherlink.com 1.10,2013-09-21 05:01:00,
2013-09-21 01:16:00,58.7,58.0,29.89,SSW,206,0.0,1.0,96,0.00,,,0.00,weatherlink.com 1.10,2013-09-21 05:16:00,
2013-09-21 01:31:00,58.6,58.0,29.89,SSW,206,0.0,0.0,96,0.00,,,0.00,weatherlink.com 1.10,2013-09-21 05:31:00,
2013-09-21 01:46:00,58.3,57.0,29.89,SSW,206,0.0,0.0,96,0.00,,,0.00,weatherlink.com 1.10,2013-09-21 05:46:00,
2013-09-21 02:02:00,58.1,57.0,29.89,SSW,206,0.0,0.0,96,0.00,,,0.00,weatherlink.com 1.10,2013-09-21 06:02:00,
2013-09-21 02:16:00,57.8,57.0,29.89,SSW,206,0.0,0.0,97,0.00,,,0.00,Wunderground v.1.15,2013-09-21 06:16:00,
2013-09-21 02:17:00,57.8,57.0,29.89,SSW,206,0.0,0.0,97,0.00,,,0.00,Wunderground v.1.15,2013-09-21 06:17:00,
2013-09-21 02:31:00,57.8,57.0,29.88,SSW,206,1.0,1.0,97,0.00,,,0.00,weatherlink.com 1.10,2013-09-21 06:31:00,
2013-09-21 02:46:00,57.5,57.0,29.88,SSW,206,0.0,1.0,97,0.00,,,0.00,weatherlink.com 1.10,2013-09-21 06:46:00,
2013-09-21 03:01:00,57.5,57.0,29.87,SSW,206,0.0,1.0,97,0.00,,,0.00,weatherlink.com 1.10,2013-09-21 07:01:00,
2013-09-21 03:16:00,57.5,57.0,29.86,SSW,206,0.0,1.0,97,0.00,,,0.00,weatherlink.com 1.10,2013-09-21 07:16:00,
2013-09-21 03:31:00,57.4,57.0,29.86,SSW,206,0.0,0.0,97,0.00,,,0.00,weatherlink.com 1.10,2013-09-21 07:31:00,
2013-09-21 03:46:00,57.7,57.0,29.86,SSW,206,0.0,1.0,97,0.00,,,0.00,weatherlink.com 1.10,2013-09-21 07:46:00,
2013-09-21 04:02:00,58.0,57.0,29.85,SSW,206,0.0,1.0,97,0.00,,,0.00,weatherlink.com 1.10,2013-09-21 08:02:00,
2013-09-21 04:17:00,58.1,57.0,29.85,SSW,206,0.0,1.0,97,0.00,,,0.00,weatherlink.com 1.10,2013-09-21 08:17:00,
2013-09-21 04:32:00,58.0,57.0,29.84,SSW,206,0.0,2.0,97,0.00,,,0.00,weatherlink.com 1.10,2013-09-21 08:32:00,
2013-09-21 04:47:00,58.3,58.0,29.84,SSW,206,1.0,1.0,97,0.00,,,0.00,weatherlink.com 1.10,2013-09-21 08:47:00,
2013-09-21 05:02:00,58.8,58.0,29.84,SSW,206,0.0,1.0,98,0.00,,,0.00,weatherlink.com 1.10,2013-09-21 09:02:00,
2013-09-21 05:17:00,59.2,59.0,29.83,SSW,206,0.0,1.0,98,0.00,,,0.00,weatherlink.com 1.10,2013-09-21 09:17:00,
2013-09-21 05:32:00,59.4,59.0,29.83,SSW,206,0.0,1.0,97,0.00,,,0.00,weatherlink.com 1.10,2013-09-21 09:32:00,
2013-09-21 05:47:00,59.8,59.0,29.82,SSW,206,0.0,1.0,97,0.00,,,0.00,weatherlink.com 1.10,2013-09-21 09:47:00,
2013-09-21 06:02:00,60.5,60.0,29.82,SSW,206,0.0,1.0,98,0.00,,,0.00,weatherlink.com 1.10,2013-09-21 10:02:00,
2013-09-21 06:17:00,60.8,60.0,29.82,SSW,206,0.0,2.0,97,0.00,,,0.00,weatherlink.com 1.10,2013-09-21 10:17:00,
2013-09-21 06:32:00,61.3,61.0,29.81,SSW,206,1.0,2.0,98,0.00,,,0.00,weatherlink.com 1.10,2013-09-21 10:32:00,
2013-09-21 06:47:00,61.8,61.0,29.80,SSW,206,0.0,1.0,98,0.00,,,0.00,weatherlink.com 1.10,2013-09-21 10:47:00,
2013-09-21 07:02:00,62.3,62.0,29.81,WSW,244,1.0,3.0,97,0.00,,,0.00,weatherlink.com 1.10,2013-09-21 11:02:00,
2013-09-21 07:17:00,62.2,61.0,29.80,NW,309,0.0,2.0,97,0.00,,,0.00,weatherlink.com 1.10,2013-09-21 11:17:00,
2013-09-21 07:32:00,61.9,61.0,29.80,NW,309,0.0,2.0,97,0.00,,,0.00,weatherlink.com 1.10,2013-09-21 11:32:00,
2013-09-21 07:47:00,62.2,61.0,29.80,NW,307,0.0,2.0,97,0.00,,,0.00,weatherlink.com 1.10,2013-09-21 11:47:00,
2013-09-21 08:02:00,62.8,62.0,29.80,NNE,14,1.0,1.0,96,0.00,,,0.00,weatherlink.com 1.10,2013-09-21 12:02:00,
2013-09-21 08:17:00,63.5,62.0,29.80,NNW,344,1.0,2.0,94,0.00,,,0.00,weatherlink.com 1.10,2013-09-21 12:17:00,
2013-09-21 08:32:00,63.7,62.0,29.79,NNW,344,0.0,2.0,94,0.00,,,0.00,weatherlink.com 1.10,2013-09-21 12:32:00,
2013-09-21 08:47:00,63.8,62.0,29.79,NNW,339,1.0,2.0,94,0.00,,,0.00,weatherlink.com 1.10,2013-09-21 12:47:00,
2013-09-21 09:02:00,64.3,63.0,29.79,WNW,292,1.0,2.0,94,0.00,,,0.00,weatherlink.com 1.10,2013-09-21 13:02:00,
2013-09-21 09:17:00,65.8,63.0,29.79,WNW,296,1.0,3.0,90,0.00,,,0.00,weatherlink.com 1.10,2013-09-21 13:17:00,
2013-09-21 09:32:00,66.6,63.0,29.78,WSW,256,0.0,3.0,89,0.00,,,0.00,weatherlink.com 1.10,2013-09-21 13:32:00,
2013-09-21 09:47:00,67.2,64.0,29.78,NNE,30,0.0,3.0,88,0.00,,,0.00,weatherlink.com 1.10,2013-09-21 13:47:00,
2013-09-21 10:02:00,67.4,64.0,29.77,ENE,69,0.0,2.0,89,0.00,,,0.00,weatherlink.com 1.10,2013-09-21 14:02:00,
2013-09-21 10:17:00,69.4,64.0,29.77,ESE,121,1.0,7.0,83,0.00,,,0.00,weatherlink.com 1.10,2013-09-21 14:17:00,
2013-09-21 10:32:00,69.5,65.0,29.76,East,101,1.0,5.0,84,0.00,,,0.00,weatherlink.com 1.10,2013-09-21 14:32:00,
2013-09-21 10:47:00,70.1,65.0,29.75,ESE,110,1.0,5.0,83,0.00,,,0.00,weatherlink.com 1.10,2013-09-21 14:47:00,
2013-09-21 11:03:00,70.4,65.0,29.75,SSW,211,0.0,5.0,82,0.00,,,0.00,weatherlink.com 1.10,2013-09-21 15:03:00,
2013-09-21 11:18:00,70.2,64.0,29.74,SE,130,0.0,6.0,81,0.00,,,0.00,weatherlink.com 1.10,2013-09-21 15:18:00,
2013-09-21 11:33:00,69.8,64.0,29.74,NE,38,2.0,6.0,82,0.00,,,0.00,weatherlink.com 1.10,2013-09-21 15:33:00,
2013-09-21 11:48:00,70.0,64.0,29.73,SW,219,0.0,4.0,82,0.00,,,0.00,weatherlink.com 1.10,2013-09-21 15:48:00,
2013-09-21 11:55:00,70.1,64.3,29.73,ENE,57,0.0,1.0,82,0.00,,,0.00,Wunderground v.1.15,2013-09-21 15:55:00,
2013-09-21 12:01:00,70.7,64.2,29.73,SW,217,2.0,2.0,80,0.00,,,0.00,Wunderground v.1.15,2013-09-21 16:01:00,
2013-09-21 12:06:00,70.8,64.3,29.73,SSW,200,3.0,6.0,80,0.00,,,0.00,Wunderground v.1.15,2013-09-21 16:06:00,
2013-09-21 12:11:00,70.7,64.2,29.73,ESE,120,1.0,2.0,80,0.00,,,0.00,Wunderground v.1.15,2013-09-21 16:11:00,
2013-09-21 12:16:00,70.6,64.5,29.72,East,90,1.0,2.0,81,0.00,,,0.00,Wunderground v.1.15,2013-09-21 16:16:00,
2013-09-21 12:21:00,70.5,64.4,29.72,SSW,211,2.0,4.0,81,0.00,,,0.00,Wunderground v.1.15,2013-09-21 16:21:00,
2013-09-21 12:26:00,70.5,64.4,29.72,SSW,192,4.0,7.0,81,0.00,,,0.00,Wunderground v.1.15,2013-09-21 16:26:00,
2013-09-21 12:31:00,70.5,64.4,29.72,ESE,110,1.0,2.0,81,0.00,,,0.00,Wunderground v.1.15,2013-09-21 16:31:00,
2013-09-21 12:36:00,70.4,64.3,29.72,South,179,2.0,5.0,81,0.00,,,0.00,Wunderground v.1.15,2013-09-21 16:36:00,
2013-09-21 12:41:00,70.3,64.2,29.72,South,183,4.0,4.0,81,0.00,,,0.00,Wunderground v.1.15,2013-09-21 16:41:00,
2013-09-21 12:46:00,70.2,64.1,29.72,SE,128,3.0,4.0,81,0.00,,,0.00,Wunderground v.1.15,2013-09-21 16:46:00,
2013-09-21 12:51:00,70.3,64.5,29.71,SSW,192,1.0,4.0,82,0.00,,,0.00,Wunderground v.1.15,2013-09-21 16:51:00,
2013-09-21 12:56:00,70.4,64.6,29.71,SSW,194,0.0,4.0,82,0.00,,,0.00,Wunderground v.1.15,2013-09-21 16:56:00,
2013-09-21 13:01:00,70.4,64.3,29.71,West,273,0.0,1.0,81,0.00,,,0.00,Wunderground v.1.15,2013-09-21 17:01:00,
2013-09-21 13:06:00,70.4,64.3,29.71,SSW,193,2.0,5.0,81,0.00,,,0.00,Wunderground v.1.15,2013-09-21 17:06:00,
2013-09-21 13:11:00,70.3,64.5,29.71,SSW,198,2.0,2.0,82,0.00,,,0.00,Wunderground v.1.15,2013-09-21 17:11:00,
2013-09-21 13:16:00,70.3,64.2,29.70,South,190,2.0,7.0,81,0.00,,,0.00,Wunderground v.1.15,2013-09-21 17:16:00,
2013-09-21 13:21:00,70.3,64.5,29.70,SSW,205,0.0,2.0,82,0.00,,,0.00,Wunderground v.1.15,2013-09-21 17:21:00,
2013-09-21 13:27:00,70.1,64.3,29.70,SE,129,3.0,4.0,82,0.00,,,0.00,Wunderground v.1.15,2013-09-21 17:27:00,
2013-09-21 13:32:00,70.1,64.3,29.69,West,262,1.0,2.0,82,0.00,,,0.00,Wunderground v.1.15,2013-09-21 17:32:00,
2013-09-21 13:37:00,70.1,64.3,29.69,SSW,206,0.0,4.0,82,0.00,,,0.00,Wunderground v.1.15,2013-09-21 17:37:00,
2013-09-21 13:42:00,70.0,64.6,29.69,SSW,213,2.0,3.0,83,0.00,,,0.00,Wunderground v.1.15,2013-09-21 17:42:00,
2013-09-21 13:47:00,69.7,64.6,29.69,SSW,208,0.0,3.0,84,0.00,,,0.00,Wunderground v.1.15,2013-09-21 17:47:00,
2013-09-21 13:52:00,69.5,64.8,29.68,SW,225,1.0,2.0,85,0.00,,,0.00,Wunderground v.1.15,2013-09-21 17:52:00,
2013-09-21 13:57:00,69.3,65.3,29.69,SW,225,1.0,2.0,87,0.00,,,0.00,Wunderground v.1.15,2013-09-21 17:57:00,
2013-09-21 14:02:00,68.9,64.9,29.69,East,101,1.0,1.0,87,0.00,,,0.00,Wunderground v.1.15,2013-09-21 18:02:00,
2013-09-21 14:07:00,68.9,65.2,29.69,East,88,1.0,2.0,88,0.00,,,0.00,Wunderground v.1.15,2013-09-21 18:07:00,
2013-09-21 14:12:00,68.3,65.3,29.68,East,88,1.0,2.0,90,0.00,,,0.00,Wunderground v.1.15,2013-09-21 18:12:00,
2013-09-21 14:17:00,67.7,65.0,29.68,ESE,122,1.0,2.0,91,0.00,,,0.01,Wunderground v.1.15,2013-09-21 18:17:00,
2013-09-21 14:22:00,67.6,65.2,29.68,ESE,122,0.0,1.0,92,0.00,,,0.01,Wunderground v.1.15,2013-09-21 18:22:00,
2013-09-21 14:27:00,67.7,65.3,29.68,SW,216,1.0,3.0,92,0.00,,,0.01,Wunderground v.1.15,2013-09-21 18:27:00,
2013-09-21 14:32:00,68.0,65.9,29.68,SW,216,0.0,0.0,93,0.00,,,0.01,Wunderground v.1.15,2013-09-21 18:32:00,
2013-09-21 14:44:00,68.4,65.7,29.68,South,169,1.0,2.0,91,0.00,,,0.01,Wunderground v.1.15,2013-09-21 18:44:00,
2013-09-21 18:35:00,59.8,58.9,29.70,SSW,207,1.0,1.0,97,0.07,,,0.48,Wunderground v.1.15,2013-09-21 22:35:00,
2013-09-21 18:41:00,59.7,58.8,29.70,SSW,207,0.0,1.0,97,0.09,,,0.49,Wunderground v.1.15,2013-09-21 22:41:00,
2013-09-21 18:47:00,59.8,59.0,29.71,SSW,207,0.0,1.0,97,0.07,,,0.49,weatherlink.com 1.10,2013-09-21 22:47:00,
2013-09-21 18:53:00,59.8,58.9,29.71,SSW,207,0.0,0.0,97,0.04,,,0.50,Wunderground v.1.15,2013-09-21 22:53:00,
2013-09-21 19:02:00,59.7,59.0,29.71,SSW,207,0.0,1.0,97,0.07,,,0.51,weatherlink.com 1.10,2013-09-21 23:02:00,
2013-09-21 19:07:00,59.7,58.8,29.71,SSW,207,0.0,0.0,97,0.06,,,0.51,Wunderground v.1.15,2013-09-21 23:07:00,
2013-09-21 19:12:00,59.7,59.1,29.70,SSW,207,0.0,0.0,98,0.15,,,0.53,Wunderground v.1.15,2013-09-21 23:12:00,
2013-09-21 19:17:00,59.7,59.1,29.70,SSW,207,1.0,1.0,98,0.10,,,0.53,Wunderground v.1.15,2013-09-21 23:17:00,
2013-09-21 19:22:00,59.7,59.1,29.70,SSW,207,0.0,0.0,98,0.06,,,0.53,Wunderground v.1.15,2013-09-21 23:22:00,
2013-09-21 19:27:00,59.6,59.0,29.70,SSW,207,0.0,0.0,98,0.06,,,0.54,Wunderground v.1.15,2013-09-21 23:27:00,
2013-09-21 19:32:00,59.6,59.0,29.70,SSW,207,1.0,1.0,98,0.06,,,0.54,Wunderground v.1.15,2013-09-21 23:32:00,
2013-09-21 19:37:00,59.5,58.9,29.71,SSW,207,0.0,1.0,98,0.04,,,0.54,Wunderground v.1.15,2013-09-21 23:37:00,
2013-09-21 19:42:00,59.4,58.8,29.72,SSW,207,1.0,1.0,98,0.00,,,0.54,Wunderground v.1.15,2013-09-21 23:42:00,
2013-09-21 19:47:00,59.4,58.8,29.72,SSW,207,0.0,2.0,98,0.00,,,0.54,Wunderground v.1.15,2013-09-21 23:47:00,
2013-09-21 19:52:00,59.5,58.9,29.72,SSW,207,0.0,1.0,98,0.00,,,0.54,Wunderground v.1.15,2013-09-21 23:52:00,
2013-09-21 19:57:00,59.5,58.9,29.72,SSW,207,0.0,1.0,98,0.00,,,0.54,Wunderground v.1.15,2013-09-21 23:57:00,
2013-09-21 20:02:00,59.5,58.9,29.72,SSW,207,0.0,0.0,98,0.00,,,0.54,Wunderground v.1.15,2013-09-22 00:02:00,
2013-09-21 20:07:00,59.5,58.9,29.72,SSW,207,0.0,0.0,98,0.00,,,0.54,Wunderground v.1.15,2013-09-22 00:07:00,
2013-09-21 20:13:00,59.4,58.8,29.72,SSW,207,0.0,0.0,98,0.00,,,0.54,Wunderground v.1.15,2013-09-22 00:13:00,
2013-09-21 20:19:00,59.4,58.8,29.72,SSW,207,0.0,0.0,98,0.00,,,0.54,Wunderground v.1.15,2013-09-22 00:19:00,
2013-09-21 20:24:00,59.4,58.8,29.72,SSW,207,0.0,0.0,98,0.00,,,0.54,Wunderground v.1.15,2013-09-22 00:24:00,
2013-09-21 20:29:00,59.3,58.7,29.73,SSW,207,0.0,0.0,98,0.00,,,0.54,Wunderground v.1.15,2013-09-22 00:29:00,
2013-09-21 20:34:00,59.3,58.7,29.73,SSW,207,0.0,0.0,98,0.00,,,0.54,Wunderground v.1.15,2013-09-22 00:34:00,
2013-09-21 20:39:00,59.3,58.7,29.73,SSW,207,0.0,1.0,98,0.00,,,0.54,Wunderground v.1.15,2013-09-22 00:39:00,
2013-09-21 20:44:00,59.3,58.7,29.73,SSW,207,0.0,1.0,98,0.00,,,0.54,Wunderground v.1.15,2013-09-22 00:44:00,
2013-09-21 20:49:00,59.3,58.7,29.73,SSW,207,0.0,1.0,98,0.00,,,0.54,Wunderground v.1.15,2013-09-22 00:49:00,
2013-09-21 20:54:00,59.3,58.7,29.73,SSW,207,0.0,1.0,98,0.00,,,0.54,Wunderground v.1.15,2013-09-22 00:54:00,
2013-09-21 20:59:00,59.4,58.8,29.73,SSW,207,0.0,1.0,98,0.00,,,0.54,Wunderground v.1.15,2013-09-22 00:59:00,
2013-09-21 21:04:00,59.4,58.8,29.73,SSW,207,0.0,0.0,98,0.00,,,0.54,Wunderground v.1.15,2013-09-22 01:04:00,
2013-09-21 21:09:00,59.3,58.7,29.74,SSW,207,0.0,1.0,98,0.00,,,0.54,Wunderground v.1.15,2013-09-22 01:09:00,
2013-09-21 21:14:00,59.3,58.7,29.73,SSW,207,0.0,1.0,98,0.00,,,0.54,Wunderground v.1.15,2013-09-22 01:14:00,
2013-09-21 21:19:00,59.4,58.8,29.73,SSW,207,0.0,1.0,98,0.00,,,0.54,Wunderground v.1.15,2013-09-22 01:19:00,
2013-09-21 21:24:00,59.4,58.8,29.73,SSW,207,0.0,0.0,98,0.00,,,0.54,Wunderground v.1.15,2013-09-22 01:24:00,
2013-09-21 21:29:00,59.4,58.8,29.73,SSW,207,0.0,0.0,98,0.00,,,0.54,Wunderground v.1.15,2013-09-22 01:29:00,
2013-09-21 21:34:00,59.4,58.8,29.74,SSW,207,1.0,1.0,98,0.00,,,0.54,Wunderground v.1.15,2013-09-22 01:34:00,
2013-09-21 21:39:00,59.5,58.9,29.74,SSW,207,0.0,1.0,98,0.00,,,0.54,Wunderground v.1.15,2013-09-22 01:39:00,
2013-09-21 21:44:00,59.4,58.8,29.74,SSW,207,1.0,2.0,98,0.00,,,0.54,Wunderground v.1.15,2013-09-22 01:44:00,
2013-09-21 21:49:00,59.4,58.8,29.74,SSW,207,1.0,2.0,98,0.00,,,0.54,Wunderground v.1.15,2013-09-22 01:49:00,
2013-09-21 21:54:00,59.4,58.8,29.74,SSW,207,1.0,2.0,98,0.00,,,0.54,Wunderground v.1.15,2013-09-22 01:54:00,
2013-09-21 21:59:00,59.4,58.8,29.74,SSW,207,0.0,2.0,98,0.00,,,0.54,Wunderground v.1.15,2013-09-22 01:59:00,
2013-09-21 22:04:00,59.4,58.8,29.74,SSW,207,0.0,1.0,98,0.00,,,0.54,Wunderground v.1.15,2013-09-22 02:04:00,
2013-09-21 22:09:00,59.4,58.8,29.74,SSW,207,0.0,1.0,98,0.00,,,0.54,Wunderground v.1.15,2013-09-22 02:09:00,
2013-09-21 22:14:00,59.4,58.8,29.74,SSW,207,0.0,0.0,98,0.00,,,0.54,Wunderground v.1.15,2013-09-22 02:14:00,
2013-09-21 22:19:00,59.4,58.8,29.74,SSW,207,0.0,0.0,98,0.00,,,0.54,Wunderground v.1.15,2013-09-22 02:19:00,
2013-09-21 22:24:00,59.4,58.8,29.74,SSW,207,0.0,1.0,98,0.00,,,0.54,Wunderground v.1.15,2013-09-22 02:24:00,
2013-09-21 22:29:00,59.4,58.8,29.74,SSW,207,0.0,1.0,98,0.00,,,0.54,Wunderground v.1.15,2013-09-22 02:29:00,
2013-09-21 22:34:00,59.3,58.7,29.75,SSW,207,0.0,0.0,98,0.00,,,0.54,Wunderground v.1.15,2013-09-22 02:34:00,
2013-09-21 22:39:00,59.4,58.8,29.75,SSW,207,0.0,1.0,98,0.00,,,0.54,Wunderground v.1.15,2013-09-22 02:39:00,
2013-09-21 22:44:00,59.3,58.7,29.74,SSW,207,0.0,1.0,98,0.00,,,0.54,Wunderground v.1.15,2013-09-22 02:44:00,
2013-09-21 22:49:00,59.2,58.6,29.75,SSW,207,0.0,1.0,98,0.00,,,0.54,Wunderground v.1.15,2013-09-22 02:49:00,
2013-09-21 23:03:00,59.0,58.4,29.74,SSW,207,0.0,1.0,98,0.00,,,0.54,Wunderground v.1.15,2013-09-22 03:03:00,